Time;durP1;ratioP1;P1;durP2;ratioP2;P2;SDS_P1;SDS_P2;PMS_P1;PMS_P2;Temp;Humidity;BMP_temperature;BMP_pressure;BME280_temperature;BME280_humidity;BME280_pressure;Samples;Min_cycle;Max_cycle;Signal;HPM_P1;HPM_P2
2022/02/22 00:01:09;;;;;;;3.73;1.40;;;;;;;9.63;51.10;97328.00;5029625;28;20505;-71
2022/02/22 00:03:36;;;;;;;3.90;1.50;;;;;;;9.67;51.14;97329.38;5046262;28;20186;-71
2022/02/22 00:06:03;;;;;;;6.37;1.40;;;;;;;9.66;50.64;97321.66;5039520;28;20240;-71
2022/02/22 00:08:28;;;;;;;4.60;1.30;;;;;;;9.63;50.58;97333.22;5038894;28;20514;-70
2022/02/22 00:10:54;;;;;;;5.63;1.37;;;;;;;9.66;50.11;97340.81;5035193;28;20532;-70
2022/02/22 00:13:19;;;;;;;5.53;1.63;;;;;;;9.67;50.19;97342.47;5032795;28;20183;-70
2022/02/22 00:15:45;;;;;;;9.03;1.70;;;;;;;9.68;50.38;97345.88;5031988;28;20314;-70
2022/02/22 00:18:10;;;;;;;3.67;1.23;;;;;;;9.66;50.12;97353.06;5031416;28;20311;-70
2022/02/22 00:20:36;;;;;;;9.20;2.20;;;;;;;9.67;50.27;97352.94;5037895;28;20194;-71
2022/02/22 00:23:05;;;;;;;3.87;1.47;;;;;;;9.63;50.05;97362.03;5040462;28;20578;-70
2022/02/22 00:25:31;;;;;;;8.70;1.90;;;;;;;9.62;50.19;97377.88;5030631;28;20240;-71
2022/02/22 00:27:56;;;;;;;6.70;1.77;;;;;;;9.60;50.86;97372.75;5031077;28;20865;-70
2022/02/22 00:30:22;;;;;;;4.07;1.23;;;;;;;9.55;51.48;97382.84;5030875;28;20482;-71
2022/02/22 00:32:48;;;;;;;8.90;1.97;;;;;;;9.52;51.99;97378.69;5029876;28;20265;-70
2022/02/22 00:35:14;;;;;;;4.63;1.67;;;;;;;9.58;52.43;97377.31;5013295;28;20189;-71
2022/02/22 00:37:41;;;;;;;8.40;1.80;;;;;;;9.56;52.61;97387.13;5030730;28;20738;-70
2022/02/22 00:40:09;;;;;;;9.43;1.67;;;;;;;9.49;51.80;97397.31;5030980;28;20433;-70
2022/02/22 00:42:34;;;;;;;5.30;1.63;;;;;;;9.49;51.35;97388.63;5002751;28;20471;-70
2022/02/22 00:45:01;;;;;;;8.90;1.83;;;;;;;9.52;51.19;97393.59;5034191;28;20450;-71
2022/02/22 00:47:27;;;;;;;8.00;1.23;;;;;;;9.63;50.87;97401.28;5031036;28;20220;-71
2022/02/22 00:49:52;;;;;;;4.50;1.63;;;;;;;9.66;50.20;97410.63;5030933;28;20843;-71
2022/02/22 00:52:18;;;;;;;8.77;2.13;;;;;;;9.73;50.43;97410.88;5032993;28;20714;-71
2022/02/22 00:54:43;;;;;;;8.40;2.50;;;;;;;9.74;50.35;97412.53;5030561;28;20727;-70
2022/02/22 00:57:09;;;;;;;6.50;1.77;;;;;;;9.73;50.14;97423.97;5030819;28;20201;-71
2022/02/22 00:59:34;;;;;;;5.23;1.50;;;;;;;9.68;49.32;97420.00;5030711;28;20189;-70
2022/02/22 01:02:00;;;;;;;14.30;1.67;;;;;;;9.63;49.63;97422.22;5030741;28;20321;-70
2022/02/22 01:04:25;;;;;;;6.40;1.60;;;;;;;9.62;48.71;97420.56;5030719;28;20189;-71
2022/02/22 01:06:51;;;;;;;4.57;1.40;;;;;;;9.65;48.86;97427.28;5030558;28;20203;-70
2022/02/22 01:09:16;;;;;;;2.03;1.30;;;;;;;9.72;48.38;97435.41;5030744;28;20185;-70
2022/02/22 01:11:43;;;;;;;5.80;1.63;;;;;;;9.73;48.16;97437.91;5030884;28;20258;-70
2022/02/22 01:14:09;;;;;;;6.13;1.63;;;;;;;9.72;48.75;97436.25;5030566;28;20193;-69
2022/02/22 01:16:34;;;;;;;4.10;1.67;;;;;;;9.76;48.28;97452.50;5030612;28;20505;-70
2022/02/22 01:19:00;;;;;;;6.10;1.67;;;;;;;9.72;48.48;97448.50;5030542;28;20453;-69
2022/02/22 01:21:25;;;;;;;9.50;2.00;;;;;;;9.71;48.66;97459.91;5030220;28;20184;-70
2022/02/22 01:23:51;;;;;;;13.40;1.40;;;;;;;9.72;49.14;97451.09;5030490;28;20187;-70
2022/02/22 01:26:17;;;;;;;8.30;1.70;;;;;;;9.73;49.03;97453.59;5029856;28;20210;-70
2022/02/22 01:28:43;;;;;;;5.80;1.60;;;;;;;9.71;49.05;97457.31;5030465;28;20205;-69
2022/02/22 01:31:10;;;;;;;8.27;1.93;;;;;;;9.73;49.50;97461.47;5030134;28;20466;-69
2022/02/22 01:33:36;;;;;;;9.60;1.57;;;;;;;9.78;49.72;97472.31;5030056;28;20988;-71
2022/02/22 01:36:01;;;;;;;5.30;1.63;;;;;;;9.81;49.90;97479.09;5012236;28;20496;-69
2022/02/22 01:38:27;;;;;;;3.30;1.40;;;;;;;9.78;51.20;97458.41;5030365;28;20418;-69
2022/02/22 01:40:52;;;;;;;8.10;2.27;;;;;;;9.70;52.18;97466.97;5030359;28;20335;-69
2022/02/22 01:43:19;;;;;;;3.83;1.30;;;;;;;9.74;52.54;97467.50;5030142;28;20202;-69
2022/02/22 01:45:46;;;;;;;4.60;1.93;;;;;;;9.78;52.50;97455.78;5033142;28;20248;-70
2022/02/22 01:48:12;;;;;;;10.60;1.60;;;;;;;9.74;52.26;97464.88;5033702;28;20461;-69
2022/02/22 01:50:37;;;;;;;4.73;1.43;;;;;;;9.58;52.92;97462.84;5033698;28;20464;-69
2022/02/22 01:53:03;;;;;;;3.77;1.60;;;;;;;9.47;52.16;97474.28;5034248;28;20544;-69
2022/02/22 01:55:29;;;;;;;3.73;1.30;;;;;;;9.45;52.29;97486.69;5033555;28;20185;-70
2022/02/22 01:57:55;;;;;;;7.70;1.70;;;;;;;9.47;51.88;97482.13;5033823;28;20566;-70
2022/02/22 02:00:21;;;;;;;3.60;1.60;;;;;;;9.51;51.57;97481.72;5033484;28;20507;-70
2022/02/22 02:02:48;;;;;;;9.30;1.87;;;;;;;9.52;52.16;97482.56;5033281;28;20636;-70
2022/02/22 02:05:14;;;;;;;5.13;1.43;;;;;;;9.55;51.91;97484.91;5032964;28;20188;-70
2022/02/22 02:07:39;;;;;;;7.33;2.20;;;;;;;9.52;50.99;97482.56;5033413;28;20821;-70
2022/02/22 02:10:05;;;;;;;5.63;1.57;;;;;;;9.50;51.28;97481.84;5033312;28;20197;-70
2022/02/22 02:12:38;;;;;;;4.27;1.60;;;;;;;9.45;51.47;97484.09;5033486;28;20177;-71
2022/02/22 02:15:05;;;;;;;3.57;1.20;;;;;;;9.53;51.06;97484.22;5033428;28;20204;-71
2022/02/22 02:17:32;;;;;;;3.37;1.30;;;;;;;9.55;50.98;97487.50;5033749;28;20439;-70
2022/02/22 02:19:58;;;;;;;5.30;1.60;;;;;;;9.50;50.71;97487.94;5033651;28;20515;-71
2022/02/22 02:22:23;;;;;;;7.13;1.53;;;;;;;9.53;51.05;97490.25;5033092;28;20570;-71
2022/02/22 02:24:49;;;;;;;4.63;1.30;;;;;;;9.53;50.38;97495.47;5033046;28;20306;-70
2022/02/22 02:27:14;;;;;;;3.20;1.60;;;;;;;9.47;50.72;97479.50;5033300;28;20290;-71
2022/02/22 02:29:44;;;;;;;4.83;1.57;;;;;;;9.47;50.75;97490.81;5033124;28;20265;-71
2022/02/22 02:32:10;;;;;;;7.03;1.60;;;;;;;9.38;50.95;97495.09;5032307;28;20200;-70
2022/02/22 02:34:35;;;;;;;5.00;1.30;;;;;;;9.34;51.30;97493.69;5032615;28;20462;-70
2022/02/22 02:37:01;;;;;;;5.67;1.60;;;;;;;9.31;50.97;97501.00;4998539;28;20260;-70
2022/02/22 02:39:27;;;;;;;5.23;1.77;;;;;;;9.29;51.67;97492.44;5033010;28;20318;-71
2022/02/22 02:41:53;;;;;;;2.43;1.47;;;;;;;9.32;51.38;97498.25;5032951;28;20208;-71
2022/02/22 02:44:21;;;;;;;9.23;1.70;;;;;;;9.23;51.78;97501.69;5016218;28;20198;-71
2022/02/22 02:46:47;;;;;;;4.67;1.57;;;;;;;9.20;51.71;97499.31;5037044;28;20496;-71
2022/02/22 02:49:13;;;;;;;3.10;1.63;;;;;;;9.24;51.73;97497.28;5032443;28;20457;-71
2022/02/22 02:51:39;;;;;;;3.10;1.27;;;;;;;9.24;51.88;97481.59;5032674;28;20430;-71
2022/02/22 02:54:06;;;;;;;11.00;2.17;;;;;;;9.18;51.64;97491.63;5032849;28;20422;-71
2022/02/22 02:56:32;;;;;;;4.17;1.60;;;;;;;9.18;51.64;97485.59;5031836;28;20454;-71
2022/02/22 02:59:02;;;;;;;7.00;1.90;;;;;;;9.11;51.59;97484.47;5035024;28;20430;-70
2022/02/22 03:01:30;;;;;;;7.03;2.10;;;;;;;9.15;51.19;97501.53;5032077;28;20567;-71
2022/02/22 03:03:55;;;;;;;4.90;1.90;;;;;;;9.01;51.00;97503.59;5032363;28;20465;-72
2022/02/22 03:06:21;;;;;;;4.30;1.70;;;;;;;8.94;51.24;97515.56;5031805;28;20509;-71
2022/02/22 03:08:47;;;;;;;7.23;1.87;;;;;;;8.91;50.57;97510.59;5032344;28;20181;-72
2022/02/22 03:11:12;;;;;;;5.67;1.90;;;;;;;8.86;50.38;97512.75;5031888;28;20288;-71
2022/02/22 03:13:39;;;;;;;9.63;1.80;;;;;;;8.83;50.87;97524.31;5032142;28;20215;-70
2022/02/22 03:16:05;;;;;;;7.90;1.47;;;;;;;8.81;50.40;97531.47;5031646;28;20210;-71
2022/02/22 03:18:30;;;;;;;8.20;1.87;;;;;;;8.85;50.90;97532.03;5032276;28;20431;-70
2022/02/22 03:20:56;;;;;;;4.57;1.50;;;;;;;8.84;51.03;97540.81;5032157;28;20439;-71
2022/02/22 03:23:21;;;;;;;6.67;1.83;;;;;;;8.82;50.56;97546.19;5031906;28;20184;-70
2022/02/22 03:25:48;;;;;;;6.73;1.83;;;;;;;8.86;50.79;97550.19;5031492;28;20203;-70
2022/02/22 03:28:14;;;;;;;9.53;1.90;;;;;;;8.83;51.40;97557.44;5031702;28;20220;-70
2022/02/22 03:30:39;;;;;;;5.43;1.83;;;;;;;8.85;51.00;97556.38;5031693;28;20427;-70
2022/02/22 03:33:05;;;;;;;8.77;2.37;;;;;;;8.89;50.84;97559.56;5031693;28;20214;-71
2022/02/22 03:35:31;;;;;;;11.03;1.67;;;;;;;8.89;50.79;97570.81;5013723;28;20187;-71
2022/02/22 03:37:57;;;;;;;4.97;1.77;;;;;;;8.94;51.02;97570.44;5031723;28;20489;-69
2022/02/22 03:40:23;;;;;;;10.00;1.73;;;;;;;8.93;51.44;97576.63;5031473;28;20681;-72
2022/02/22 03:42:49;;;;;;;3.63;1.30;;;;;;;8.91;51.97;97579.38;5031546;28;20567;-71
2022/02/22 03:45:15;;;;;;;5.53;1.70;;;;;;;8.83;51.43;97594.03;5031052;28;20239;-70
2022/02/22 03:47:41;;;;;;;6.60;2.37;;;;;;;8.84;51.52;97593.09;5031312;28;20296;-71
2022/02/22 03:50:10;;;;;;;6.90;1.60;;;;;;;8.86;51.57;97592.03;5031360;28;20515;-71
2022/02/22 03:52:36;;;;;;;5.27;1.90;;;;;;;8.87;51.49;97600.69;5031453;28;20439;-71
2022/02/22 03:55:02;;;;;;;5.93;1.90;;;;;;;8.89;51.91;97596.97;5031178;28;20436;-70
2022/02/22 03:57:28;;;;;;;7.83;2.27;;;;;;;8.89;51.94;97596.16;5030877;28;20453;-70
2022/02/22 03:59:53;;;;;;;5.40;2.00;;;;;;;8.90;51.49;97613.50;5031107;28;20479;-70
2022/02/22 04:02:19;;;;;;;3.30;1.10;;;;;;;8.96;51.81;97605.09;5030798;28;20208;-70
2022/02/22 04:04:44;;;;;;;7.53;1.90;;;;;;;8.96;51.12;97609.53;5031047;28;20722;-71
2022/02/22 04:07:10;;;;;;;6.20;1.80;;;;;;;8.93;51.65;97621.06;5030785;28;20241;-70
2022/02/22 04:09:36;;;;;;;7.93;2.47;;;;;;;9.01;51.76;97631.69;5031429;28;20188;-70
2022/02/22 04:12:02;;;;;;;2.70;1.30;;;;;;;9.04;51.91;97631.44;5013756;28;20567;-70
2022/02/22 04:14:27;;;;;;;3.43;1.70;;;;;;;9.12;51.87;97632.56;5030527;28;20446;-71
2022/02/22 04:16:53;;;;;;;6.70;2.00;;;;;;;9.15;51.19;97638.34;5031290;28;20520;-70
2022/02/22 04:19:18;;;;;;;7.13;2.00;;;;;;;9.15;51.30;97645.38;5031098;28;20190;-70
2022/02/22 04:21:45;;;;;;;3.53;1.90;;;;;;;9.16;51.05;97652.25;5020211;28;20236;-72
2022/02/22 04:24:11;;;;;;;7.97;1.83;;;;;;;9.23;51.40;97650.75;5017732;28;20231;-71
2022/02/22 04:26:36;;;;;;;4.97;1.70;;;;;;;9.13;51.17;97655.97;5030391;28;20516;-71
2022/02/22 04:29:02;;;;;;;3.17;2.20;;;;;;;9.18;51.12;97663.41;5030688;28;20243;-71
2022/02/22 04:31:27;;;;;;;3.67;2.00;;;;;;;9.18;51.33;97663.41;5030235;28;20222;-70
2022/02/22 04:33:54;;;;;;;7.20;2.00;;;;;;;9.18;51.08;97673.88;5030954;28;20182;-71
2022/02/22 04:36:19;;;;;;;2.40;1.80;;;;;;;9.13;51.10;97676.06;5031110;28;20286;-71
2022/02/22 04:38:45;;;;;;;6.03;2.50;;;;;;;9.06;51.62;97676.59;5031058;28;20914;-71
2022/02/22 04:41:10;;;;;;;4.53;2.10;;;;;;;8.98;51.20;97678.19;5031082;28;20651;-70
2022/02/22 04:43:36;;;;;;;3.80;2.13;;;;;;;8.95;51.61;97681.88;5033807;28;20175;-70
2022/02/22 04:46:01;;;;;;;10.87;2.30;;;;;;;8.98;51.78;97679.00;5031042;28;20236;-70
2022/02/22 04:48:27;;;;;;;8.00;2.20;;;;;;;8.95;51.99;97681.88;5030728;28;20208;-72
2022/02/22 04:50:52;;;;;;;6.90;2.40;;;;;;;8.96;51.98;97685.34;5031211;28;20176;-71
2022/02/22 04:53:18;;;;;;;4.50;2.10;;;;;;;8.93;51.12;97690.81;5028489;28;20194;-71
2022/02/22 04:55:43;;;;;;;6.87;2.00;;;;;;;8.97;51.99;97690.41;5030448;28;20191;-71
2022/02/22 04:58:09;;;;;;;10.73;2.23;;;;;;;8.97;51.68;97708.72;5030121;28;20175;-70
2022/02/22 05:00:34;;;;;;;5.20;1.90;;;;;;;8.92;52.00;97710.91;5033004;28;20650;-70
2022/02/22 05:03:00;;;;;;;7.67;2.03;;;;;;;8.88;52.15;97699.88;5034990;28;20679;-70
2022/02/22 05:05:26;;;;;;;5.40;2.43;;;;;;;8.98;51.95;97709.56;5029695;28;20271;-72
2022/02/22 05:07:51;;;;;;;8.70;2.53;;;;;;;8.93;51.12;97711.72;5030616;28;20207;-70
2022/02/22 05:10:17;;;;;;;4.50;2.13;;;;;;;8.80;51.69;97711.94;5030002;28;20304;-71
2022/02/22 05:12:42;;;;;;;7.83;3.07;;;;;;;8.86;51.88;97706.19;5030524;28;20628;-70
2022/02/22 05:15:08;;;;;;;9.77;2.60;;;;;;;8.91;51.88;97709.25;5029710;28;20185;-71
2022/02/22 05:17:34;;;;;;;7.10;1.90;;;;;;;8.84;52.01;97713.31;5012683;28;20211;-71
2022/02/22 05:19:59;;;;;;;4.47;1.90;;;;;;;8.84;51.73;97719.41;5032571;28;20429;-70
2022/02/22 05:22:26;;;;;;;6.67;2.60;;;;;;;8.86;51.71;97727.09;5033356;28;20182;-70
2022/02/22 05:24:51;;;;;;;7.43;2.60;;;;;;;8.86;51.67;97734.94;5033229;28;20185;-70
2022/02/22 05:27:17;;;;;;;5.50;2.30;;;;;;;8.88;52.12;97735.66;5034143;28;20473;-70
2022/02/22 05:29:43;;;;;;;6.80;2.10;;;;;;;8.92;51.83;97731.84;5016295;28;20260;-70
2022/02/22 05:32:08;;;;;;;7.00;2.47;;;;;;;8.93;51.57;97732.66;5033947;28;20424;-70
2022/02/22 05:34:36;;;;;;;8.93;2.57;;;;;;;8.97;51.33;97736.66;5033429;28;20270;-70
2022/02/22 05:37:02;;;;;;;11.60;2.60;;;;;;;8.91;51.59;97736.22;5033933;28;20202;-70
2022/02/22 05:39:29;;;;;;;7.20;2.00;;;;;;;8.91;51.44;97740.63;5034095;28;20428;-70
2022/02/22 05:41:54;;;;;;;5.90;2.77;;;;;;;8.91;51.40;97743.25;5016260;28;20433;-70
2022/02/22 05:44:20;;;;;;;8.40;2.40;;;;;;;8.94;51.64;97750.84;5033357;28;20435;-71
2022/02/22 05:46:45;;;;;;;4.70;2.47;;;;;;;8.92;50.89;97755.34;5033575;28;20206;-70
2022/02/22 05:49:11;;;;;;;8.37;2.53;;;;;;;8.85;51.40;97744.59;5015467;28;20219;-70
2022/02/22 05:51:36;;;;;;;10.30;2.13;;;;;;;8.88;51.54;97754.75;5033356;28;20190;-70
2022/02/22 05:54:02;;;;;;;7.60;2.70;;;;;;;8.93;50.95;97762.25;5032840;28;20194;-70
2022/02/22 05:56:27;;;;;;;8.70;2.60;;;;;;;8.84;51.22;97761.22;5033046;28;20264;-70
2022/02/22 05:58:53;;;;;;;10.10;2.60;;;;;;;8.85;51.02;97757.66;5015424;28;20594;-70
2022/02/22 06:01:18;;;;;;;11.67;2.60;;;;;;;8.87;51.28;97765.34;5033287;28;20216;-70
2022/02/22 06:03:44;;;;;;;7.20;2.10;;;;;;;8.81;50.47;97766.69;5033552;28;20180;-70
2022/02/22 06:06:09;;;;;;;6.47;2.20;;;;;;;8.76;50.56;97772.31;5032715;28;20234;-70
2022/02/22 06:08:35;;;;;;;9.10;2.33;;;;;;;8.82;51.17;97778.81;5033612;28;20274;-71
2022/02/22 06:11:00;;;;;;;6.13;2.03;;;;;;;8.86;50.83;97780.22;5015552;28;20214;-71
2022/02/22 06:13:26;;;;;;;7.90;2.30;;;;;;;8.87;50.60;97783.66;5033251;28;20577;-71
2022/02/22 06:15:51;;;;;;;5.90;2.80;;;;;;;8.85;50.21;97785.56;5032968;28;20223;-71
2022/02/22 06:18:17;;;;;;;11.40;3.00;;;;;;;8.86;51.13;97800.28;5033117;28;20185;-71
2022/02/22 06:20:43;;;;;;;5.97;2.00;;;;;;;8.87;50.14;97797.56;5032771;28;20223;-72
2022/02/22 06:23:09;;;;;;;5.67;2.53;;;;;;;8.86;50.46;97802.91;5029146;28;20192;-71
2022/02/22 06:25:34;;;;;;;5.27;1.83;;;;;;;8.87;50.45;97801.94;5032724;28;20865;-72
2022/02/22 06:28:00;;;;;;;4.43;2.20;;;;;;;8.91;50.13;97791.13;5015167;28;20205;-71
2022/02/22 06:30:26;;;;;;;8.90;2.80;;;;;;;8.93;50.66;97806.69;5014185;28;20271;-69
2022/02/22 06:32:52;;;;;;;6.50;2.40;;;;;;;8.82;51.30;97798.91;5031506;28;20245;-72
2022/02/22 06:35:18;;;;;;;7.27;2.43;;;;;;;8.85;51.35;97801.25;5032187;28;20546;-72
2022/02/22 06:37:44;;;;;;;6.97;1.93;;;;;;;8.90;50.36;97806.94;5032940;28;20437;-71
2022/02/22 06:40:10;;;;;;;5.70;2.67;;;;;;;8.85;50.78;97809.94;5014969;28;20440;-71
2022/02/22 06:42:36;;;;;;;5.93;3.03;;;;;;;8.86;51.12;97821.22;5032942;28;20303;-72
2022/02/22 06:45:06;;;;;;;6.60;2.30;;;;;;;8.92;50.68;97820.72;5032559;28;20195;-70
2022/02/22 06:47:32;;;;;;;8.80;2.80;;;;;;;8.76;51.60;97827.19;5032268;28;20475;-71
2022/02/22 06:49:58;;;;;;;9.63;2.50;;;;;;;8.82;51.63;97830.28;5032628;28;20436;-70
2022/02/22 06:52:23;;;;;;;7.27;2.80;;;;;;;8.88;51.09;97827.16;5035074;28;20183;-70
2022/02/22 06:54:50;;;;;;;8.00;2.60;;;;;;;8.86;50.99;97842.97;4998112;28;20176;-71
2022/02/22 06:57:15;;;;;;;14.07;2.90;;;;;;;8.87;50.68;97849.00;5032261;28;20211;-71
2022/02/22 06:59:41;;;;;;;12.10;2.63;;;;;;;8.81;51.37;97849.53;5032654;28;20430;-70
2022/02/22 07:02:07;;;;;;;7.57;2.83;;;;;;;8.98;50.92;97859.41;5024084;28;20608;-71
2022/02/22 07:04:32;;;;;;;10.30;2.83;;;;;;;9.16;49.98;97862.28;5023998;28;20182;-69
2022/02/22 07:07:01;;;;;;;5.10;2.40;;;;;;;9.27;50.35;97860.56;5034755;28;20522;-70
2022/02/22 07:09:27;;;;;;;4.87;2.30;;;;;;;9.35;49.87;97866.00;5031668;28;20185;-71
2022/02/22 07:11:52;;;;;;;10.43;2.80;;;;;;;9.33;48.95;97871.34;5032259;28;20457;-70
2022/02/22 07:14:18;;;;;;;8.20;2.60;;;;;;;9.41;49.78;97882.97;5032119;28;20424;-70
2022/02/22 07:16:43;;;;;;;17.03;3.10;;;;;;;9.42;48.92;97879.41;5032050;28;20635;-72
2022/02/22 07:19:09;;;;;;;11.80;3.03;;;;;;;9.44;49.57;97887.97;5031871;28;20186;-70
2022/02/22 07:21:34;;;;;;;8.27;2.50;;;;;;;9.55;49.30;97893.13;5014612;28;20181;-71
2022/02/22 07:24:00;;;;;;;6.10;2.27;;;;;;;9.68;48.89;97895.50;5032314;28;20187;-71
2022/02/22 07:26:25;;;;;;;8.30;2.70;;;;;;;9.74;48.56;97902.03;5031332;28;20204;-71
2022/02/22 07:28:51;;;;;;;8.03;2.93;;;;;;;9.71;48.47;97900.50;5032015;28;20178;-71
2022/02/22 07:31:17;;;;;;;5.87;2.23;;;;;;;9.78;48.52;97908.66;5031434;28;20182;-70
2022/02/22 07:33:42;;;;;;;3.93;2.47;;;;;;;9.83;48.47;97909.94;5032007;28;20190;-70
2022/02/22 07:36:07;;;;;;;7.00;2.57;;;;;;;9.77;48.07;97917.47;5031535;28;20200;-71
2022/02/22 07:38:33;;;;;;;19.67;3.00;;;;;;;9.71;48.20;97916.19;5031990;28;20179;-71
2022/02/22 07:41:00;;;;;;;7.90;2.70;;;;;;;9.73;47.95;97918.69;5031650;28;20210;-70
2022/02/22 07:43:25;;;;;;;10.87;2.20;;;;;;;9.71;48.14;97918.81;5030749;28;20419;-71
2022/02/22 07:45:51;;;;;;;5.17;1.93;;;;;;;9.75;48.38;97927.25;5031241;28;20943;-72
2022/02/22 07:48:16;;;;;;;6.07;2.33;;;;;;;9.68;48.39;97930.38;5031364;28;20289;-72
2022/02/22 07:50:42;;;;;;;8.60;2.43;;;;;;;9.74;48.52;97930.81;5031655;28;20188;-72
2022/02/22 07:53:07;;;;;;;7.20;2.40;;;;;;;9.63;48.21;97929.13;5031527;28;20187;-69
2022/02/22 07:55:33;;;;;;;5.90;2.80;;;;;;;9.60;49.04;97939.84;5023130;28;20374;-69
2022/02/22 07:57:58;;;;;;;9.67;2.17;;;;;;;9.65;49.06;97942.88;5031507;28;20208;-71
2022/02/22 08:00:24;;;;;;;6.57;2.57;;;;;;;9.65;48.98;97959.44;5031239;28;20187;-71
2022/02/22 08:02:54;;;;;;;11.77;2.13;;;;;;;9.58;48.97;97962.69;5030871;28;20190;-71
2022/02/22 08:05:20;;;;;;;16.93;2.70;;;;;;;9.44;48.75;97961.22;5030925;28;20181;-71
2022/02/22 08:07:46;;;;;;;9.80;2.10;;;;;;;9.61;49.33;97968.47;5030099;28;20517;-70
2022/02/22 08:10:12;;;;;;;9.67;2.67;;;;;;;9.75;48.56;97969.13;5030885;28;20442;-71
2022/02/22 08:12:37;;;;;;;7.53;2.47;;;;;;;9.90;48.54;97969.63;5031364;28;20184;-70
2022/02/22 08:15:04;;;;;;;8.10;2.53;;;;;;;10.07;48.18;97974.28;5022811;28;20208;-70
2022/02/22 08:17:30;;;;;;;6.60;2.63;;;;;;;10.20;47.63;97983.69;5031355;28;20201;-72
2022/02/22 08:19:55;;;;;;;10.10;2.47;;;;;;;10.26;47.38;97991.06;5031619;28;20941;-71
2022/02/22 08:22:21;;;;;;;8.73;2.53;;;;;;;10.48;47.25;97991.84;5031195;28;20183;-72
2022/02/22 08:24:46;;;;;;;8.23;2.57;;;;;;;10.79;47.05;98000.50;5026672;28;20301;-72
2022/02/22 08:27:13;;;;;;;14.00;2.90;;;;;;;11.06;46.44;98006.91;5030658;28;20210;-74
2022/02/22 08:29:38;;;;;;;8.63;2.57;;;;;;;11.19;45.61;97999.63;5031154;28;20662;-73
2022/02/22 08:32:04;;;;;;;12.93;2.30;;;;;;;11.22;45.58;98007.19;5030503;28;20436;-71
2022/02/22 08:34:30;;;;;;;9.03;2.50;;;;;;;11.27;45.13;98009.44;5030684;28;20202;-73
2022/02/22 08:36:55;;;;;;;8.00;2.37;;;;;;;11.24;44.63;98007.06;5030779;28;20445;-72
2022/02/22 08:39:24;;;;;;;8.83;2.57;;;;;;;11.13;44.98;98001.97;5013252;28;20204;-73
2022/02/22 08:41:50;;;;;;;13.30;2.40;;;;;;;11.03;45.20;98017.66;5030668;28;20207;-73
2022/02/22 08:44:16;;;;;;;9.20;2.13;;;;;;;10.90;45.29;98016.13;5030168;28;20426;-73
2022/02/22 08:46:42;;;;;;;6.33;2.10;;;;;;;10.77;45.78;98019.97;5030264;28;20507;-73
2022/02/22 08:49:07;;;;;;;14.70;2.87;;;;;;;10.70;46.13;98022.28;5030843;28;20487;-73
2022/02/22 08:51:33;;;;;;;5.97;2.60;;;;;;;10.71;46.43;98027.38;5030942;28;20190;-73
2022/02/22 08:53:58;;;;;;;7.53;2.67;;;;;;;10.70;46.60;98024.91;5031483;28;20253;-73
2022/02/22 08:56:24;;;;;;;8.23;2.80;;;;;;;10.73;46.88;98020.22;5036888;28;20207;-73
2022/02/22 08:58:49;;;;;;;4.63;1.87;;;;;;;10.64;46.56;98025.44;5034163;28;20187;-73
2022/02/22 09:01:15;;;;;;;8.10;2.13;;;;;;;10.59;46.72;98016.16;5032785;28;20215;-73
2022/02/22 09:03:41;;;;;;;7.13;2.13;;;;;;;10.53;46.95;98021.09;5034542;28;20182;-72
2022/02/22 09:06:06;;;;;;;7.30;2.63;;;;;;;10.64;46.72;98028.06;5034633;28;20272;-74
2022/02/22 09:08:32;;;;;;;3.67;2.00;;;;;;;10.57;47.02;98033.00;5026242;28;20218;-73
2022/02/22 09:10:57;;;;;;;8.23;2.90;;;;;;;10.53;47.07;98031.59;5033775;28;20210;-73
2022/02/22 09:13:23;;;;;;;7.10;1.60;;;;;;;10.49;47.08;98017.91;5035009;28;20179;-74
2022/02/22 09:15:50;;;;;;;7.43;1.97;;;;;;;10.58;47.30;98025.00;5032915;28;20236;-73
2022/02/22 09:18:16;;;;;;;9.33;2.33;;;;;;;10.61;47.24;98026.53;5032912;28;20188;-72
2022/02/22 09:20:42;;;;;;;5.23;1.73;;;;;;;10.66;47.29;98042.69;5033319;28;20803;-73
2022/02/22 09:23:08;;;;;;;7.40;2.40;;;;;;;10.66;47.19;98031.38;5033759;28;20426;-72
2022/02/22 09:25:33;;;;;;;5.83;2.13;;;;;;;10.71;47.51;98029.19;5035731;28;20431;-73
2022/02/22 09:28:06;;;;;;;7.03;2.27;;;;;;;10.72;47.03;98041.31;5035147;28;20290;-73
2022/02/22 09:30:34;;;;;;;11.37;2.00;;;;;;;10.70;47.14;98030.97;5035218;28;20187;-73
2022/02/22 09:33:00;;;;;;;8.17;2.10;;;;;;;10.76;47.44;98037.47;5035834;28;20444;-73
2022/02/22 09:35:27;;;;;;;8.50;1.97;;;;;;;10.87;47.25;98031.31;5037024;28;20520;-73
2022/02/22 09:37:53;;;;;;;7.57;2.00;;;;;;;10.88;46.95;98033.78;5037307;28;20442;-75
2022/02/22 09:40:19;;;;;;;8.40;2.00;;;;;;;10.87;46.95;98032.13;5037329;28;20430;-73
2022/02/22 09:42:45;;;;;;;7.90;1.60;;;;;;;10.92;46.85;98036.97;5032388;28;20513;-74
2022/02/22 09:45:12;;;;;;;8.37;2.37;;;;;;;10.88;46.48;98032.97;5033301;28;20191;-73
2022/02/22 09:47:38;;;;;;;7.63;2.30;;;;;;;10.94;46.40;98034.22;4999772;28;20578;-72
2022/02/22 09:50:04;;;;;;;4.90;2.00;;;;;;;10.89;46.15;98037.25;5032273;28;20442;-73
2022/02/22 09:52:30;;;;;;;7.17;1.70;;;;;;;10.97;46.22;98049.66;5015685;28;20430;-73
2022/02/22 09:54:56;;;;;;;6.43;1.80;;;;;;;10.96;46.04;98042.78;5033248;28;20441;-73
2022/02/22 09:57:21;;;;;;;10.17;2.50;;;;;;;11.05;46.10;98049.84;5032496;28;20211;-73
2022/02/22 09:59:47;;;;;;;6.80;1.87;;;;;;;11.05;46.02;98055.09;5032888;28;20190;-73
2022/02/22 10:02:12;;;;;;;6.30;2.20;;;;;;;11.02;45.52;98052.72;5033530;28;20184;-73
2022/02/22 10:04:49;;;;;;;6.33;1.90;;;;;;;11.16;45.82;98048.88;5015198;28;20271;-73
2022/02/22 10:07:15;;;;;;;9.90;1.83;;;;;;;11.06;45.98;98051.50;5033245;28;20230;-73
2022/02/22 10:10:02;;;;;;;8.43;2.27;;;;;;;11.13;45.78;98049.19;4994758;28;1099805;-72
2022/02/22 10:12:34;;;;;;;15.20;2.37;;;;;;;11.07;45.66;98043.50;5034386;28;20431;-73
2022/02/22 10:15:01;;;;;;;7.83;2.57;;;;;;;11.14;45.70;98051.66;5035003;28;20454;-73
2022/02/22 10:17:26;;;;;;;10.63;2.47;;;;;;;11.10;46.01;98039.75;5034806;28;20465;-73
2022/02/22 10:19:57;;;;;;;8.57;1.90;;;;;;;11.06;46.11;98047.06;5034853;28;20801;-73
2022/02/22 10:22:22;;;;;;;15.63;2.60;;;;;;;11.08;46.29;98046.97;5034800;28;20190;-72
2022/02/22 10:24:48;;;;;;;7.37;2.03;;;;;;;11.16;46.49;98038.38;5033675;28;20415;-73
2022/02/22 10:27:13;;;;;;;8.27;2.27;;;;;;;11.27;46.38;98040.91;5015608;28;20234;-73
2022/02/22 10:29:39;;;;;;;4.07;1.90;;;;;;;11.39;46.76;98049.47;5033407;28;20175;-73
2022/02/22 10:32:12;;;;;;;11.10;2.47;;;;;;;11.46;46.64;98040.09;5033002;28;20179;-72
2022/02/22 10:34:37;;;;;;;10.47;2.50;;;;;;;11.51;46.28;98043.13;5025266;28;20182;-73
2022/02/22 10:37:03;;;;;;;7.53;2.53;;;;;;;11.58;46.14;98053.09;5032911;28;20441;-73
2022/02/22 10:39:28;;;;;;;8.00;2.30;;;;;;;11.40;46.12;98045.88;5032722;28;20176;-73
2022/02/22 10:41:55;;;;;;;7.20;2.13;;;;;;;11.58;46.18;98050.47;5024751;28;20187;-73
2022/02/22 10:44:29;;;;;;;15.33;2.90;;;;;;;11.72;46.03;98041.34;5032670;28;20242;-73
2022/02/22 10:46:56;;;;;;;5.47;2.80;;;;;;;11.79;45.78;98045.91;5032648;28;20832;-73
2022/02/22 10:49:23;;;;;;;8.83;2.53;;;;;;;11.78;45.59;98041.59;5014894;28;21005;-73
2022/02/22 10:51:51;;;;;;;8.30;2.13;;;;;;;11.74;45.54;98052.53;5032599;28;20426;-73
2022/02/22 10:54:22;;;;;;;8.53;2.53;;;;;;;11.77;45.19;98047.81;5032585;28;21114;-73
2022/02/22 10:56:48;;;;;;;5.03;2.37;;;;;;;11.83;45.31;98046.44;5034536;28;20430;-73
2022/02/22 10:59:13;;;;;;;7.27;2.43;;;;;;;11.86;44.94;98045.31;5032295;28;20513;-75
2022/02/22 11:01:39;;;;;;;9.33;2.50;;;;;;;11.78;45.11;98060.00;5032276;28;20553;-74
2022/02/22 11:04:06;;;;;;;5.97;2.07;;;;;;;11.73;45.38;98051.69;5024419;28;20664;-73
2022/02/22 11:06:32;;;;;;;9.93;2.43;;;;;;;11.72;45.38;98054.47;5023896;28;20202;-73
2022/02/22 11:08:58;;;;;;;5.17;2.00;;;;;;;11.75;45.28;98043.69;5035168;28;20560;-72
2022/02/22 11:11:36;;;;;;;4.00;1.80;;;;;;;11.81;45.18;98049.22;5033898;28;20196;-73
2022/02/22 11:14:08;;;;;;;7.03;2.40;;;;;;;11.82;45.39;98053.50;5014448;28;20421;-73
2022/02/22 11:16:39;;;;;;;6.87;2.13;;;;;;;11.86;45.32;98045.31;5030639;28;20470;-73
2022/02/22 11:19:28;;;;;;;10.63;2.27;;;;;;;12.00;45.38;98054.63;5032458;28;20492;-72
2022/02/22 11:21:55;;;;;;;8.53;2.30;;;;;;;11.99;45.44;98061.66;5014447;28;20426;-72
2022/02/22 11:24:21;;;;;;;9.33;2.60;;;;;;;12.08;45.54;98045.06;5032282;28;20425;-72
2022/02/22 11:26:57;;;;;;;12.50;2.60;;;;;;;12.21;46.15;98030.78;5031751;28;20450;-73
2022/02/22 11:29:25;;;;;;;7.43;2.17;;;;;;;12.21;46.00;98028.97;5032026;28;20419;-73
2022/02/22 11:31:59;;;;;;;8.73;2.77;;;;;;;12.24;45.36;98017.34;5032041;28;20800;-72
2022/02/22 11:34:37;;;;;;;6.17;2.33;;;;;;;12.04;45.07;98017.41;5032009;28;20837;-73